Time;durP1;ratioP1;P1;durP2;ratioP2;P2;SDS_P1;SDS_P2;PMS_P1;PMS_P2;Temp;Humidity;BMP_temperature;BMP_pressure;BME280_temperature;BME280_humidity;BME280_pressure;Samples;Min_cycle;Max_cycle;Signal;HPM_P1;HPM_P2
2023/01/26 00:02:08;;;;;;;0.60;0.60;;;-1.20;99.90;;;;;;5065017;28;20731;-83
2023/01/26 00:04:33;;;;;;;0.60;0.60;;;-1.20;99.90;;;;;;5068608;28;20185;-83
2023/01/26 00:06:59;;;;;;;0.40;0.40;;;-1.30;99.90;;;;;;5056919;28;20187;-83
2023/01/26 00:09:24;;;;;;;0.40;0.40;;;-1.30;99.90;;;;;;5052881;28;20201;-84
2023/01/26 00:11:56;;;;;;;0.43;0.43;;;-1.20;99.90;;;;;;5069560;28;20196;-83
2023/01/26 00:14:21;;;;;;;0.67;0.67;;;-1.20;99.90;;;;;;5069171;28;20183;-84
2023/01/26 00:16:47;;;;;;;0.50;0.50;;;-1.20;99.90;;;;;;5065612;28;20451;-84
2023/01/26 00:19:12;;;;;;;0.50;0.50;;;-1.10;99.90;;;;;;5062730;28;20189;-83
2023/01/26 00:21:40;;;;;;;0.50;0.50;;;-1.10;99.90;;;;;;5053022;28;20557;-83
2023/01/26 00:24:06;;;;;;;0.60;0.60;;;-1.20;99.90;;;;;;5062972;28;20198;-83
2023/01/26 00:26:32;;;;;;;0.40;0.40;;;-1.20;99.90;;;;;;5065750;28;20451;-83
2023/01/26 00:28:59;;;;;;;0.40;0.40;;;-1.10;99.90;;;;;;5069872;28;20443;-84
2023/01/26 00:31:26;;;;;;;0.50;0.50;;;-1.10;99.90;;;;;;5070620;28;20262;-84
2023/01/26 00:33:54;;;;;;;0.63;0.63;;;-1.10;99.90;;;;;;5065589;28;20503;-84
2023/01/26 00:36:22;;;;;;;0.40;0.40;;;-1.10;99.90;;;;;;5065726;28;20489;-83
2023/01/26 00:38:48;;;;;;;0.50;0.50;;;-1.10;99.90;;;;;;5056113;28;20963;-84
2023/01/26 00:43:58;;;;;;;0.37;0.37;;;-1.10;99.90;;;;;;5068175;28;20215;-84
2023/01/26 00:46:24;;;;;;;0.43;0.43;;;-1.10;99.90;;;;;;5068325;28;20464;-83
2023/01/26 00:48:49;;;;;;;0.40;0.40;;;-1.10;99.90;;;;;;5069301;28;20439;-83
2023/01/26 00:51:15;;;;;;;0.50;0.50;;;-1.20;99.90;;;;;;5066771;28;20182;-84
2023/01/26 00:53:40;;;;;;;0.50;0.50;;;-1.10;99.90;;;;;;5068616;28;20742;-83
2023/01/26 00:56:06;;;;;;;0.40;0.40;;;-1.10;99.90;;;;;;5066781;28;20178;-83
2023/01/26 00:58:32;;;;;;;0.50;0.50;;;-1.00;99.90;;;;;;5067537;28;20204;-83
2023/01/26 01:00:57;;;;;;;0.40;0.40;;;-1.10;99.90;;;;;;5068476;28;20511;-83
2023/01/26 01:03:23;;;;;;;0.40;0.40;;;-1.00;99.90;;;;;;5055269;28;20321;-84
2023/01/26 01:05:48;;;;;;;0.40;0.40;;;-1.00;99.90;;;;;;5063867;28;20746;-83
2023/01/26 01:08:14;;;;;;;0.40;0.40;;;-1.00;99.90;;;;;;5050889;28;20179;-83
2023/01/26 01:10:39;;;;;;;0.40;0.40;;;-1.00;99.90;;;;;;5070325;28;20186;-83
2023/01/26 01:13:05;;;;;;;0.40;0.40;;;-1.10;99.90;;;;;;5068627;28;20220;-83
2023/01/26 01:15:30;;;;;;;0.50;0.50;;;-1.00;99.90;;;;;;5065140;28;20619;-83
2023/01/26 01:17:56;;;;;;;0.43;0.43;;;-1.00;99.90;;;;;;5068278;28;20746;-83
2023/01/26 01:20:21;;;;;;;0.50;0.50;;;-1.00;99.90;;;;;;5067902;28;20214;-83
2023/01/26 01:22:49;;;;;;;0.60;0.60;;;-1.00;99.90;;;;;;5058321;28;20814;-84
2023/01/26 01:25:24;;;;;;;0.60;0.60;;;-1.00;99.90;;;;;;5069419;28;20186;-84
2023/01/26 01:27:50;;;;;;;0.50;0.50;;;-1.00;99.90;;;;;;5068587;28;20423;-83
2023/01/26 01:30:15;;;;;;;0.60;0.60;;;-1.00;99.90;;;;;;5068748;28;20439;-84
2023/01/26 01:32:41;;;;;;;0.60;0.60;;;-1.00;99.90;;;;;;5067364;28;20537;-83
2023/01/26 01:35:07;;;;;;;0.50;0.50;;;-1.00;99.90;;;;;;5066859;28;20523;-83
2023/01/26 01:37:36;;;;;;;0.50;0.50;;;-1.00;99.90;;;;;;5064185;28;20446;-83
2023/01/26 01:40:01;;;;;;;0.50;0.50;;;-1.00;99.90;;;;;;5061171;28;20201;-84
2023/01/26 01:42:27;;;;;;;0.50;0.50;;;-1.00;99.90;;;;;;5065752;28;20448;-83
2023/01/26 01:45:28;;;;;;;0.50;0.50;;;-0.90;99.90;;;;;;5065372;28;20186;-83
2023/01/26 01:47:56;;;;;;;0.47;0.47;;;-1.00;99.90;;;;;;5064843;28;20664;-83
2023/01/26 01:50:22;;;;;;;0.50;0.50;;;-1.00;99.90;;;;;;5061421;28;20452;-83
2023/01/26 01:52:48;;;;;;;0.33;0.33;;;-1.00;99.90;;;;;;5061788;28;21019;-83
2023/01/26 01:55:15;;;;;;;0.60;0.60;;;-1.00;99.90;;;;;;5066802;28;20474;-84
2023/01/26 01:57:51;;;;;;;0.40;0.40;;;-0.90;99.90;;;;;;5067187;28;20178;-83
2023/01/26 02:00:20;;;;;;;0.40;0.40;;;-0.90;99.90;;;;;;5063396;28;20528;-83
2023/01/26 02:03:10;;;;;;;0.40;0.40;;;-0.90;99.90;;;;;;5065362;28;20460;-83
2023/01/26 02:05:55;;;;;;;0.40;0.40;;;-0.90;99.90;;;;;;5051938;28;20925;-83
2023/01/26 02:08:28;;;;;;;0.50;0.50;;;-0.90;99.90;;;;;;5062726;28;20522;-84
2023/01/26 02:10:57;;;;;;;0.50;0.50;;;-0.90;99.90;;;;;;5066236;28;20442;-84
2023/01/26 02:13:23;;;;;;;0.40;0.40;;;-0.90;99.90;;;;;;5067594;28;20458;-83
2023/01/26 02:15:50;;;;;;;0.50;0.50;;;-0.90;99.90;;;;;;5065884;28;20483;-83
2023/01/26 02:18:16;;;;;;;0.40;0.40;;;-0.90;99.90;;;;;;5066020;28;20447;-84
2023/01/26 02:20:57;;;;;;;0.40;0.40;;;-0.80;99.90;;;;;;5064632;28;20467;-83
2023/01/26 02:23:57;;;;;;;0.50;0.50;;;-0.80;99.90;;;;;;5063434;28;20444;-83
2023/01/26 02:26:26;;;;;;;0.50;0.50;;;-0.80;99.90;;;;;;5062438;28;20458;-83
2023/01/26 02:28:52;;;;;;;0.47;0.47;;;-0.80;99.90;;;;;;5069223;28;20952;-83
2023/01/26 02:31:18;;;;;;;0.40;0.40;;;-0.80;99.90;;;;;;5066395;28;20448;-83
2023/01/26 02:33:44;;;;;;;0.43;0.43;;;-0.80;99.90;;;;;;5069946;28;20642;-83
2023/01/26 02:36:28;;;;;;;0.43;0.43;;;-0.80;99.90;;;;;;5062275;28;20490;-83
2023/01/26 02:39:41;;;;;;;0.50;0.50;;;-0.70;99.90;;;;;;5060962;28;20587;-83
2023/01/26 02:44:51;;;;;;;0.40;0.40;;;-0.70;99.90;;;;;;5064188;28;21030;-83
2023/01/26 02:47:18;;;;;;;0.50;0.50;;;-0.70;99.90;;;;;;5067490;28;20528;-83
2023/01/26 02:49:47;;;;;;;0.50;0.50;;;-0.70;99.90;;;;;;5066612;28;20189;-83
2023/01/26 02:52:14;;;;;;;0.40;0.40;;;-0.80;99.90;;;;;;5062265;28;20436;-83
2023/01/26 02:57:24;;;;;;;0.50;0.50;;;-0.70;99.90;;;;;;5066034;28;20497;-84
2023/01/26 02:59:50;;;;;;;0.40;0.40;;;-0.70;99.90;;;;;;5067355;28;20447;-83
2023/01/26 03:02:15;;;;;;;0.50;0.50;;;-0.70;99.90;;;;;;5066917;28;20525;-83
2023/01/26 03:04:42;;;;;;;0.50;0.50;;;-0.60;99.90;;;;;;5069764;28;20186;-83
2023/01/26 03:07:07;;;;;;;0.50;0.50;;;-0.60;99.90;;;;;;5070049;28;20653;-83
2023/01/26 03:09:33;;;;;;;0.50;0.50;;;-0.70;99.90;;;;;;5071078;28;20478;-83
2023/01/26 03:11:58;;;;;;;0.50;0.50;;;-0.70;99.90;;;;;;5059309;28;20187;-83
2023/01/26 03:14:24;;;;;;;0.50;0.50;;;-0.70;99.90;;;;;;5061393;28;20197;-84
2023/01/26 03:16:49;;;;;;;0.50;0.50;;;-0.70;99.90;;;;;;5067373;28;20194;-83
2023/01/26 03:27:37;;;;;;;0.40;0.40;;;-0.70;99.90;;;;;;5067287;28;20880;-83
2023/01/26 03:30:02;;;;;;;0.50;0.50;;;-0.70;99.90;;;;;;5069292;28;20443;-83
2023/01/26 03:32:28;;;;;;;0.47;0.47;;;-0.70;99.90;;;;;;5071129;28;20783;-83
2023/01/26 03:34:53;;;;;;;0.40;0.40;;;-0.70;99.90;;;;;;5067384;28;20192;-83
2023/01/26 03:37:21;;;;;;;0.50;0.50;;;-0.70;99.90;;;;;;5060083;28;20515;-83
2023/01/26 03:56:21;;;;;;;0.50;0.50;;;-0.60;99.90;;;;;;5068632;28;20482;-83
2023/01/26 03:58:50;;;;;;;0.60;0.60;;;-0.60;99.90;;;;;;5068489;28;20473;-83
2023/01/26 04:01:18;;;;;;;0.40;0.40;;;-0.60;99.90;;;;;;5068991;28;20479;-83
2023/01/26 04:09:18;;;;;;;0.50;0.50;;;-0.60;99.90;;;;;;5064803;28;20543;-83
2023/01/26 04:11:44;;;;;;;0.40;0.40;;;-0.60;99.90;;;;;;5063346;28;20538;-83
2023/01/26 04:22:25;;;;;;;0.40;0.40;;;-0.60;99.90;;;;;;5073092;28;20475;-83
2023/01/26 04:24:50;;;;;;;0.40;0.40;;;-0.60;99.90;;;;;;5068961;28;20432;-83
2023/01/26 04:27:16;;;;;;;0.40;0.40;;;-0.60;99.90;;;;;;5068154;28;20315;-83
2023/01/26 04:29:41;;;;;;;0.50;0.50;;;-0.60;99.90;;;;;;5059384;28;20178;-83
2023/01/26 04:32:07;;;;;;;0.40;0.40;;;-0.60;99.90;;;;;;5064812;28;20706;-83
2023/01/26 04:34:32;;;;;;;0.53;0.53;;;-0.50;99.90;;;;;;5068443;28;20198;-83
2023/01/26 04:36:58;;;;;;;0.50;0.50;;;-0.50;99.90;;;;;;5063030;28;20183;-83
2023/01/26 04:39:23;;;;;;;0.40;0.40;;;-0.50;99.90;;;;;;5067743;28;20212;-82
2023/01/26 04:41:49;;;;;;;0.47;0.47;;;-0.50;99.90;;;;;;5069229;28;20348;-83
2023/01/26 04:44:15;;;;;;;0.40;0.40;;;-0.50;99.90;;;;;;5070081;28;20316;-83
2023/01/26 04:46:41;;;;;;;0.37;0.37;;;-0.50;99.90;;;;;;5064966;28;20185;-83
2023/01/26 04:49:06;;;;;;;0.40;0.40;;;-0.50;99.90;;;;;;5062888;28;20441;-83
2023/01/26 04:51:32;;;;;;;0.30;0.30;;;-0.50;99.90;;;;;;5060047;28;20681;-82
2023/01/26 04:53:58;;;;;;;0.40;0.40;;;-0.50;99.90;;;;;;5070962;28;20228;-83
2023/01/26 04:56:24;;;;;;;0.47;0.47;;;-0.40;99.90;;;;;;5065047;28;20194;-83
2023/01/26 04:58:51;;;;;;;0.50;0.50;;;-0.50;99.90;;;;;;5071189;28;20178;-83
2023/01/26 05:01:17;;;;;;;0.50;0.50;;;-0.50;99.90;;;;;;5066613;28;20486;-82
2023/01/26 05:03:42;;;;;;;0.40;0.40;;;-0.50;99.90;;;;;;5063463;28;20437;-83
2023/01/26 05:06:08;;;;;;;0.40;0.40;;;-0.50;99.90;;;;;;5064547;28;20680;-83
2023/01/26 05:08:35;;;;;;;0.40;0.40;;;-0.40;99.90;;;;;;5064809;28;20637;-82
2023/01/26 05:11:00;;;;;;;0.40;0.40;;;-0.40;99.90;;;;;;5069545;28;20177;-83
2023/01/26 05:13:26;;;;;;;0.40;0.40;;;-0.40;99.90;;;;;;5063677;28;20448;-83
2023/01/26 05:15:51;;;;;;;0.40;0.40;;;-0.50;99.90;;;;;;5057492;28;20186;-83
2023/01/26 05:18:17;;;;;;;0.50;0.50;;;-0.40;99.90;;;;;;5068619;28;20591;-82
2023/01/26 05:20:42;;;;;;;0.43;0.43;;;-0.40;99.90;;;;;;5065870;28;20293;-82
2023/01/26 05:23:08;;;;;;;0.40;0.40;;;-0.50;99.90;;;;;;5068051;28;20638;-82
2023/01/26 05:25:33;;;;;;;0.40;0.40;;;-0.40;99.90;;;;;;5064792;28;20186;-82
2023/01/26 05:27:59;;;;;;;0.40;0.40;;;-0.40;99.90;;;;;;5066434;28;20178;-82
2023/01/26 05:30:24;;;;;;;0.40;0.40;;;-0.40;99.90;;;;;;5061460;28;20201;-82
2023/01/26 05:32:50;;;;;;;0.50;0.50;;;-0.40;99.90;;;;;;5064582;28;20187;-82
2023/01/26 05:35:16;;;;;;;0.40;0.40;;;-0.40;99.90;;;;;;5065235;28;20194;-82
2023/01/26 05:37:41;;;;;;;0.40;0.40;;;-0.40;99.90;;;;;;5052134;28;20205;-82
2023/01/26 05:40:09;;;;;;;0.40;0.40;;;-0.30;99.90;;;;;;5065005;28;20810;-82
2023/01/26 05:42:34;;;;;;;0.40;0.40;;;-0.30;99.90;;;;;;5065466;28;20189;-82
2023/01/26 05:45:00;;;;;;;0.30;0.30;;;-0.30;99.90;;;;;;5064641;28;20513;-82
2023/01/26 05:47:25;;;;;;;0.37;0.37;;;-0.30;99.90;;;;;;5066203;28;20197;-83
2023/01/26 05:49:51;;;;;;;0.40;0.40;;;-0.30;99.90;;;;;;5061469;28;20605;-82
2023/01/26 05:52:19;;;;;;;0.40;0.40;;;-0.30;99.90;;;;;;5062821;28;20181;-82
2023/01/26 05:54:45;;;;;;;0.50;0.50;;;-0.30;99.90;;;;;;5066291;28;20568;-82
2023/01/26 05:57:11;;;;;;;0.40;0.40;;;-0.20;99.90;;;;;;5066517;28;20531;-82
2023/01/26 05:59:36;;;;;;;0.40;0.40;;;-0.20;99.90;;;;;;5066049;28;20208;-82
2023/01/26 06:02:02;;;;;;;0.37;0.37;;;-0.30;99.90;;;;;;5058453;28;20226;-83
2023/01/26 06:04:28;;;;;;;0.40;0.40;;;-0.30;99.90;;;;;;5062052;28;20291;-82
2023/01/26 06:06:55;;;;;;;0.50;0.50;;;-0.30;99.90;;;;;;5060176;28;20185;-83
2023/01/26 06:09:21;;;;;;;0.40;0.40;;;-0.30;99.90;;;;;;5064462;28;20517;-83
2023/01/26 06:11:47;;;;;;;0.40;0.40;;;-0.30;99.90;;;;;;5063787;28;20444;-83
2023/01/26 06:14:12;;;;;;;0.30;0.30;;;-0.30;99.90;;;;;;5065810;28;20466;-82
2023/01/26 06:16:38;;;;;;;0.40;0.40;;;-0.30;99.90;;;;;;5061965;28;20193;-82
2023/01/26 06:19:04;;;;;;;0.40;0.40;;;-0.30;99.90;;;;;;5066440;28;20567;-82
2023/01/26 06:21:31;;;;;;;0.40;0.40;;;-0.30;99.90;;;;;;5062332;28;20304;-82
2023/01/26 06:23:57;;;;;;;0.50;0.50;;;-0.20;99.90;;;;;;5064675;28;20217;-82
2023/01/26 06:26:25;;;;;;;0.50;0.50;;;-0.20;99.90;;;;;;5064643;28;20883;-82
2023/01/26 06:28:52;;;;;;;0.50;0.50;;;-0.20;99.90;;;;;;5050486;28;20638;-83
2023/01/26 06:31:18;;;;;;;0.53;0.53;;;-0.20;99.90;;;;;;5062670;28;20874;-83
2023/01/26 06:33:44;;;;;;;0.40;0.40;;;-0.20;99.90;;;;;;5060008;28;20437;-82
2023/01/26 06:36:12;;;;;;;0.40;0.40;;;-0.20;99.90;;;;;;5060029;28;20448;-82
2023/01/26 06:38:43;;;;;;;0.40;0.40;;;-0.20;99.90;;;;;;5070327;28;20600;-82
2023/01/26 06:41:09;;;;;;;0.43;0.43;;;-0.20;99.90;;;;;;5068575;28;20541;-83
2023/01/26 06:43:35;;;;;;;0.50;0.50;;;-0.20;99.90;;;;;;5071110;28;20440;-82
2023/01/26 06:46:02;;;;;;;0.40;0.40;;;-0.20;99.90;;;;;;5069100;28;21249;-83
2023/01/26 06:48:30;;;;;;;0.40;0.40;;;-0.20;99.90;;;;;;5070723;28;20440;-82
2023/01/26 06:50:57;;;;;;;0.40;0.40;;;-0.20;99.90;;;;;;5065113;28;20519;-82
2023/01/26 06:53:50;;;;;;;0.40;0.40;;;-0.20;99.90;;;;;;5066049;28;20480;-82
2023/01/26 06:56:15;;;;;;;0.40;0.40;;;-0.20;99.90;;;;;;5053925;28;20443;-82
2023/01/26 06:58:41;;;;;;;0.40;0.40;;;-0.20;99.90;;;;;;5071038;28;20444;-83
2023/01/26 07:01:09;;;;;;;0.33;0.33;;;-0.10;99.90;;;;;;5070145;28;20678;-82
2023/01/26 07:03:35;;;;;;;0.40;0.40;;;-0.20;99.90;;;;;;5066434;28;20264;-82
2023/01/26 07:06:02;;;;;;;0.30;0.30;;;-0.20;99.90;;;;;;5064511;28;20535;-82
2023/01/26 07:08:27;;;;;;;0.43;0.43;;;-0.20;99.90;;;;;;5066116;28;20650;-81
2023/01/26 07:10:53;;;;;;;0.30;0.30;;;-0.20;99.90;;;;;;5058761;28;20463;-82
2023/01/26 07:13:18;;;;;;;0.40;0.40;;;-0.20;99.90;;;;;;5051134;28;20188;-81
2023/01/26 07:15:44;;;;;;;0.30;0.30;;;-0.20;99.90;;;;;;5059750;28;20486;-82
2023/01/26 07:18:09;;;;;;;0.40;0.40;;;-0.10;99.90;;;;;;5068570;28;20189;-82
2023/01/26 07:20:36;;;;;;;0.30;0.30;;;-0.10;99.90;;;;;;5068507;28;22777;-82
2023/01/26 07:23:01;;;;;;;0.40;0.40;;;-0.10;99.90;;;;;;5065329;28;20191;-82
2023/01/26 07:25:27;;;;;;;0.40;0.40;;;-0.10;99.90;;;;;;5064854;28;20954;-82
2023/01/26 07:27:58;;;;;;;0.50;0.50;;;-0.10;99.90;;;;;;5060935;28;20186;-82
2023/01/26 07:30:25;;;;;;;0.50;0.50;;;-0.10;99.90;;;;;;5062118;28;20218;-81
2023/01/26 07:32:50;;;;;;;0.50;0.50;;;-0.10;99.90;;;;;;5062549;28;20443;-81
2023/01/26 07:35:16;;;;;;;0.40;0.40;;;-0.10;99.90;;;;;;5065856;28;20955;-82
2023/01/26 07:37:42;;;;;;;0.40;0.40;;;-0.10;99.90;;;;;;5059065;28;20193;-82
2023/01/26 07:40:08;;;;;;;0.40;0.40;;;-0.10;99.90;;;;;;5060407;28;20452;-83
2023/01/26 07:42:33;;;;;;;0.30;0.30;;;0.00;99.90;;;;;;5055090;28;20205;-82
2023/01/26 07:44:59;;;;;;;0.40;0.40;;;-0.10;99.90;;;;;;5068887;28;20812;-83
2023/01/26 07:47:25;;;;;;;0.40;0.40;;;-0.10;99.90;;;;;;5068504;28;20315;-82
2023/01/26 07:49:50;;;;;;;0.30;0.30;;;0.00;99.90;;;;;;5067894;28;20835;-82
2023/01/26 07:52:16;;;;;;;0.30;0.30;;;-0.10;99.90;;;;;;5058248;28;20190;-82
2023/01/26 07:54:41;;;;;;;0.40;0.40;;;0.00;99.90;;;;;;5058777;28;20261;-82
2023/01/26 07:57:07;;;;;;;0.40;0.40;;;0.00;99.90;;;;;;5061462;28;21256;-82
2023/01/26 07:59:33;;;;;;;0.40;0.40;;;0.00;99.90;;;;;;5062336;28;20681;-82
2023/01/26 08:01:59;;;;;;;0.30;0.30;;;0.00;99.90;;;;;;5067364;28;20222;-83
2023/01/26 08:04:24;;;;;;;0.40;0.40;;;0.00;99.90;;;;;;5067244;28;20519;-83
2023/01/26 08:06:51;;;;;;;0.40;0.40;;;0.10;99.90;;;;;;5071063;28;20565;-83
2023/01/26 08:09:16;;;;;;;0.40;0.40;;;0.10;99.90;;;;;;5066622;28;20193;-84
2023/01/26 08:11:42;;;;;;;0.30;0.30;;;0.10;99.90;;;;;;5066633;28;20453;-83
2023/01/26 08:14:07;;;;;;;0.30;0.30;;;0.10;99.90;;;;;;5064341;28;20711;-83
2023/01/26 08:16:33;;;;;;;0.47;0.47;;;0.10;99.90;;;;;;5066545;28;20662;-84
2023/01/26 08:18:58;;;;;;;0.40;0.40;;;0.10;99.90;;;;;;5067730;28;20541;-84
2023/01/26 08:21:24;;;;;;;0.40;0.40;;;0.10;99.90;;;;;;5064126;28;20221;-84
2023/01/26 08:23:50;;;;;;;0.50;0.50;;;0.10;99.90;;;;;;5066514;28;20190;-82
2023/01/26 08:26:17;;;;;;;0.40;0.40;;;0.10;99.90;;;;;;5060916;28;20622;-83
2023/01/26 08:28:43;;;;;;;0.40;0.40;;;0.10;99.90;;;;;;5060647;28;20448;-83
2023/01/26 08:31:17;;;;;;;0.40;0.40;;;0.10;99.90;;;;;;5068767;28;20947;-84
2023/01/26 08:33:43;;;;;;;0.30;0.30;;;0.20;99.90;;;;;;5064190;28;20498;-83
2023/01/26 08:36:14;;;;;;;0.50;0.50;;;0.20;99.90;;;;;;5060120;28;20444;-84
2023/01/26 08:38:40;;;;;;;0.40;0.40;;;0.20;99.90;;;;;;5065015;28;20428;-84
2023/01/26 08:41:06;;;;;;;0.30;0.30;;;0.20;99.90;;;;;;5066429;28;20526;-84
2023/01/26 08:43:32;;;;;;;0.30;0.30;;;0.20;99.90;;;;;;5060316;28;20469;-84
2023/01/26 08:45:58;;;;;;;0.40;0.40;;;0.20;99.90;;;;;;5063569;28;20186;-84
2023/01/26 08:48:24;;;;;;;0.40;0.40;;;0.20;99.90;;;;;;5060129;28;20455;-84
2023/01/26 08:50:53;;;;;;;0.40;0.40;;;0.20;99.90;;;;;;5060469;28;20377;-83
2023/01/26 08:53:19;;;;;;;0.40;0.40;;;0.20;99.90;;;;;;5056630;28;20325;-82
2023/01/26 08:55:44;;;;;;;0.40;0.40;;;0.20;99.90;;;;;;5054893;28;20448;-83
2023/01/26 08:58:10;;;;;;;0.40;0.40;;;0.20;99.90;;;;;;5059334;28;20193;-84
2023/01/26 09:00:36;;;;;;;0.40;0.40;;;0.20;99.90;;;;;;5060874;28;20661;-84
2023/01/26 09:03:03;;;;;;;0.40;0.40;;;0.30;99.90;;;;;;5066516;28;20196;-85
2023/01/26 09:05:34;;;;;;;0.40;0.40;;;0.30;99.90;;;;;;5065908;28;20261;-84
2023/01/26 09:08:00;;;;;;;0.40;0.40;;;0.30;99.90;;;;;;5068251;28;20538;-85
2023/01/26 09:10:26;;;;;;;0.50;0.50;;;0.30;99.90;;;;;;5060769;28;20926;-84
2023/01/26 09:12:52;;;;;;;0.30;0.30;;;0.30;99.90;;;;;;5070531;28;20190;-83
2023/01/26 09:15:17;;;;;;;0.27;0.27;;;0.30;99.90;;;;;;5061253;28;20943;-83
2023/01/26 09:17:43;;;;;;;0.50;0.50;;;0.30;99.90;;;;;;5061210;28;20570;-84
2023/01/26 09:20:10;;;;;;;0.50;0.50;;;0.30;99.90;;;;;;5055615;28;20320;-84
2023/01/26 09:22:35;;;;;;;0.40;0.40;;;0.30;99.90;;;;;;5061119;28;20321;-83
2023/01/26 09:25:01;;;;;;;0.50;0.50;;;0.30;99.90;;;;;;5059727;28;20589;-84
2023/01/26 09:27:27;;;;;;;0.40;0.40;;;0.30;99.90;;;;;;5059507;28;20197;-84
2023/01/26 09:29:54;;;;;;;0.40;0.40;;;0.30;99.90;;;;;;5061366;28;20952;-84
2023/01/26 09:32:19;;;;;;;0.40;0.40;;;0.30;99.90;;;;;;5057946;28;20697;-84
2023/01/26 09:34:45;;;;;;;0.30;0.30;;;0.40;99.90;;;;;;5061437;28;20447;-83
2023/01/26 09:37:10;;;;;;;0.40;0.40;;;0.40;99.90;;;;;;5062341;28;20182;-83
2023/01/26 09:39:36;;;;;;;0.40;0.40;;;0.40;99.90;;;;;;5058475;28;20654;-84
2023/01/26 09:42:39;;;;;;;0.27;0.27;;;0.50;99.90;;;;;;5064252;28;20244;-85
2023/01/26 09:45:25;;;;;;;0.40;0.40;;;0.50;99.90;;;;;;5064897;28;20235;-85
2023/01/26 09:47:57;;;;;;;0.40;0.40;;;0.60;99.90;;;;;;5061449;28;20850;-83
2023/01/26 09:50:27;;;;;;;0.50;0.50;;;0.70;99.90;;;;;;5065509;28;20818;-85
2023/01/26 09:53:00;;;;;;;0.30;0.30;;;0.70;99.90;;;;;;5069794;28;20560;-85
2023/01/26 09:55:27;;;;;;;0.40;0.40;;;0.70;99.90;;;;;;5059724;28;20459;-85
2023/01/26 09:57:59;;;;;;;0.40;0.40;;;0.70;99.90;;;;;;5068566;28;20444;-84
2023/01/26 10:00:34;;;;;;;0.40;0.40;;;0.80;99.90;;;;;;5063486;28;20469;-84
2023/01/26 10:03:26;;;;;;;0.30;0.30;;;0.80;99.90;;;;;;5067385;28;20444;-83
2023/01/26 10:06:14;;;;;;;0.37;0.37;;;0.80;99.90;;;;;;5060988;28;20452;-84
2023/01/26 10:08:42;;;;;;;0.40;0.40;;;0.80;99.90;;;;;;5065591;28;20499;-84
2023/01/26 10:11:23;;;;;;;0.40;0.40;;;0.80;99.90;;;;;;5074198;28;20417;-84
2023/01/26 10:14:01;;;;;;;0.30;0.30;;;0.90;99.90;;;;;;5069303;28;20432;-83
2023/01/26 10:16:27;;;;;;;0.30;0.30;;;0.90;99.90;;;;;;5072292;28;20529;-82
2023/01/26 10:19:02;;;;;;;0.30;0.30;;;1.00;99.90;;;;;;5068828;28;20940;-83
2023/01/26 10:21:34;;;;;;;0.47;0.47;;;1.00;99.90;;;;;;5068089;28;20252;-84
2023/01/26 10:24:01;;;;;;;0.40;0.40;;;1.00;99.90;;;;;;5067640;28;20485;-84
2023/01/26 10:26:31;;;;;;;0.30;0.30;;;1.00;99.90;;;;;;5065781;28;20444;-84
2023/01/26 10:28:57;;;;;;;0.33;0.33;;;1.10;99.90;;;;;;5070168;28;22681;-83
2023/01/26 10:31:31;;;;;;;0.40;0.40;;;1.10;99.90;;;;;;5066049;28;20444;-82
2023/01/26 10:33:58;;;;;;;0.40;0.40;;;1.20;99.90;;;;;;5068093;28;20485;-82
2023/01/26 10:36:27;;;;;;;0.30;0.30;;;1.20;99.90;;;;;;5062819;28;20466;-83
2023/01/26 10:38:53;;;;;;;0.30;0.30;;;1.20;99.90;;;;;;5064341;28;20941;-83
2023/01/26 10:41:18;;;;;;;0.40;0.40;;;1.20;99.90;;;;;;5068219;28;20625;-83
2023/01/26 10:43:58;;;;;;;0.30;0.30;;;1.20;99.90;;;;;;5069688;28;20277;-83
2023/01/26 10:46:29;;;;;;;0.40;0.40;;;1.20;99.90;;;;;;5070368;28;20645;-83
2023/01/26 10:49:16;;;;;;;0.40;0.40;;;1.20;99.90;;;;;;5072195;28;20463;-82
2023/01/26 10:52:04;;;;;;;0.40;0.40;;;1.20;99.90;;;;;;5065647;28;20435;-82
2023/01/26 10:54:32;;;;;;;0.30;0.30;;;1.20;99.90;;;;;;5066471;28;20681;-83
2023/01/26 10:57:01;;;;;;;0.30;0.30;;;1.20;99.90;;;;;;5058097;28;21018;-83
2023/01/26 10:59:32;;;;;;;0.40;0.40;;;1.20;99.90;;;;;;5072151;28;20437;-83
2023/01/26 11:02:09;;;;;;;0.40;0.40;;;1.10;99.90;;;;;;5068564;28;20556;-83
2023/01/26 11:04:35;;;;;;;0.30;0.30;;;1.10;99.90;;;;;;5070198;28;20443;-83
2023/01/26 11:07:27;;;;;;;0.30;0.30;;;1.10;99.90;;;;;;5056039;28;20448;-82
2023/01/26 11:09:53;;;;;;;0.40;0.40;;;1.20;99.90;;;;;;5064425;28;20549;-82
2023/01/26 11:12:20;;;;;;;0.37;0.37;;;1.20;99.90;;;;;;5068965;28;20444;-82
2023/01/26 11:15:05;;;;;;;0.30;0.30;;;1.30;99.90;;;;;;5066311;28;20972;-81
2023/01/26 11:17:56;;;;;;;0.30;0.30;;;1.40;99.90;;;;;;5063517;28;20439;-82
2023/01/26 11:21:02;;;;;;;0.40;0.40;;;1.50;99.90;;;;;;5063901;28;20439;-82
2023/01/26 11:24:02;;;;;;;0.40;0.40;;;1.50;99.90;;;;;;5066159;28;20560;-82
2023/01/26 11:26:30;;;;;;;0.40;0.40;;;1.60;99.90;;;;;;5058057;28;20449;-82
2023/01/26 11:29:31;;;;;;;0.40;0.40;;;1.70;99.90;;;;;;5067589;28;20456;-80
2023/01/26 11:32:16;;;;;;;0.30;0.30;;;1.80;99.90;;;;;;5065737;28;20821;-80
2023/01/26 11:34:50;;;;;;;0.20;0.20;;;1.90;99.90;;;;;;5069241;28;20479;-80
2023/01/26 11:37:46;;;;;;;0.30;0.30;;;1.90;99.90;;;;;;5064598;28;20435;-80
2023/01/26 11:40:19;;;;;;;0.23;0.23;;;1.80;99.90;;;;;;5063879;28;20946;-80
2023/01/26 11:43:16;;;;;;;0.30;0.30;;;1.90;99.90;;;;;;5065177;28;20456;-80
2023/01/26 11:46:11;;;;;;;0.30;0.30;;;1.90;99.90;;;;;;5063237;28;20793;-81
2023/01/26 11:48:54;;;;;;;0.27;0.27;;;2.00;99.90;;;;;;5065146;28;20535;-80
2023/01/26 11:51:27;;;;;;;0.40;0.40;;;2.10;99.90;;;;;;5062587;28;20469;-80
2023/01/26 11:54:14;;;;;;;0.20;0.20;;;2.20;99.90;;;;;;5067025;28;20501;-80
2023/01/26 11:56:47;;;;;;;0.30;0.30;;;2.20;99.90;;;;;;5066510;28;20936;-80
2023/01/26 11:59:31;;;;;;;0.20;0.20;;;2.20;99.90;;;;;;5070467;28;20432;-80
2023/01/26 12:02:04;;;;;;;0.27;0.27;;;2.30;99.90;;;;;;5065124;28;20570;-80
2023/01/26 12:04:33;;;;;;;0.40;0.40;;;2.40;99.90;;;;;;5068757;28;20444;-80
2023/01/26 12:07:05;;;;;;;0.30;0.30;;;2.40;99.90;;;;;;5069359;28;20448;-80
2023/01/26 12:09:46;;;;;;;0.30;0.30;;;2.40;99.90;;;;;;5063943;28;20428;-80
2023/01/26 12:12:19;;;;;;;0.30;0.30;;;2.50;99.90;;;;;;5068945;28;20436;-80
2023/01/26 12:14:52;;;;;;;0.30;0.30;;;2.50;99.90;;;;;;5068197;28;20472;-80
2023/01/26 12:17:28;;;;;;;0.30;0.30;;;2.60;99.90;;;;;;5066422;28;20444;-80
2023/01/26 12:20:18;;;;;;;0.40;0.40;;;2.60;99.90;;;;;;5066233;28;20817;-80
2023/01/26 12:23:05;;;;;;;0.20;0.20;;;2.60;99.90;;;;;;5063807;28;20487;-80
2023/01/26 12:25:35;;;;;;;0.30;0.30;;;2.70;99.90;;;;;;5069456;28;20530;-79
2023/01/26 12:28:24;;;;;;;0.30;0.30;;;2.60;99.90;;;;;;5066054;28;20496;-80
2023/01/26 12:31:30;;;;;;;0.30;0.30;;;2.50;99.90;;;;;;5060125;28;20428;-81
2023/01/26 12:33:56;;;;;;;0.30;0.30;;;2.60;99.90;;;;;;5067204;28;20440;-80
2023/01/26 12:36:47;;;;;;;0.30;0.30;;;2.70;99.90;;;;;;5064929;28;20428;-82
2023/01/26 12:39:32;;;;;;;0.20;0.20;;;2.80;99.90;;;;;;5059625;28;20261;-82
2023/01/26 12:42:15;;;;;;;0.30;0.30;;;2.80;99.90;;;;;;5070073;28;20488;-80
2023/01/26 12:44:43;;;;;;;0.40;0.40;;;2.80;99.90;;;;;;5058027;28;20448;-81
2023/01/26 12:47:33;;;;;;;0.27;0.27;;;2.90;99.90;;;;;;5066014;28;20436;-81
2023/01/26 12:50:23;;;;;;;0.30;0.30;;;2.90;99.90;;;;;;5061030;28;20532;-81
2023/01/26 12:52:51;;;;;;;0.30;0.30;;;2.90;99.90;;;;;;5068141;28;20533;-81
2023/01/26 12:55:43;;;;;;;0.30;0.30;;;2.90;99.90;;;;;;5068360;28;20585;-81
2023/01/26 12:58:21;;;;;;;0.30;0.30;;;2.90;99.90;;;;;;5062594;28;20478;-81
2023/01/26 13:01:10;;;;;;;0.30;0.30;;;2.90;99.90;;;;;;5063253;28;20495;-82
2023/01/26 13:03:41;;;;;;;0.30;0.30;;;3.00;99.90;;;;;;5062712;28;20539;-82
2023/01/26 13:06:09;;;;;;;0.30;0.30;;;3.00;99.90;;;;;;5067707;28;20440;-81
2023/01/26 13:08:34;;;;;;;0.30;0.30;;;2.90;99.90;;;;;;5068235;28;20920;-79
2023/01/26 13:11:08;;;;;;;0.30;0.30;;;2.90;99.90;;;;;;5067884;28;20436;-80
2023/01/26 13:13:52;;;;;;;0.30;0.30;;;2.90;99.90;;;;;;5064535;28;20239;-80
2023/01/26 13:16:17;;;;;;;0.30;0.30;;;2.90;99.90;;;;;;5063729;28;20451;-80
2023/01/26 13:18:50;;;;;;;0.30;0.30;;;2.90;99.90;;;;;;5068680;28;20805;-80
2023/01/26 13:21:34;;;;;;;0.30;0.30;;;2.90;99.90;;;;;;5065888;28;20224;-80
2023/01/26 13:24:01;;;;;;;0.30;0.30;;;2.90;99.90;;;;;;5066925;28;20920;-79
2023/01/26 13:26:32;;;;;;;0.30;0.30;;;2.90;99.90;;;;;;5063487;28;20443;-80
2023/01/26 13:29:26;;;;;;;0.20;0.20;;;2.90;99.90;;;;;;5066995;28;20185;-80
2023/01/26 13:31:53;;;;;;;0.30;0.30;;;2.90;99.90;;;;;;5063451;28;20523;-80
2023/01/26 13:34:34;;;;;;;0.40;0.40;;;2.90;99.90;;;;;;5061595;28;20462;-80
2023/01/26 13:37:11;;;;;;;0.23;0.23;;;3.00;99.90;;;;;;5067990;28;20447;-80
2023/01/26 13:39:40;;;;;;;0.37;0.37;;;3.00;99.90;;;;;;5065404;28;20798;-80
2023/01/26 13:42:19;;;;;;;0.27;0.27;;;3.00;99.90;;;;;;5066817;28;20484;-81
2023/01/26 13:44:49;;;;;;;0.40;0.40;;;3.00;99.90;;;;;;5065570;28;20970;-81
2023/01/26 13:47:23;;;;;;;0.30;0.30;;;3.00;99.90;;;;;;5065351;28;21078;-81
2023/01/26 13:49:49;;;;;;;0.30;0.30;;;3.10;99.90;;;;;;5059511;28;20443;-80
2023/01/26 13:52:16;;;;;;;0.30;0.30;;;3.10;99.90;;;;;;5061922;28;20451;-80
2023/01/26 13:54:43;;;;;;;0.30;0.30;;;3.10;99.90;;;;;;5061862;28;20480;-80